Terminal Aerodrome Forecast
Issued by NWS

Current Version | Previous Version | Graphics & Text | Print | Product List | Glossary On
Versions: 1 2 3 4 5 6 7 8 9 10 11 12 13 14 15 16 17 18 19 20 21 22 23 24 25 26 27 28 29
000
FTUS41 KRNK 270537
TAFLWB
TAF
KLWB 270537Z 2706/2806 19004KT P6SM -SHRA SCT025 OVC045
     FM270800 VRB03KT 5SM -SHRA BR OVC020
     FM271300 25005KT P6SM OVC035
     FM271800 26006KT 4SM -SHRA BR VCTS BKN025CB OVC080
     FM280000 VRB03KT P6SM OVC080=

USA.gov is the U.S. government's official web portal to all federal, state and local government web resources and services.